createdAt,value
2023-04-11T00:00:09.117Z,5.27
2023-04-11T00:02:40.515Z,5.90
2023-04-11T00:05:09.819Z,7.73
2023-04-11T00:07:38.046Z,5.53
2023-04-11T00:10:08.249Z,6.40
2023-04-11T00:12:36.504Z,6.43
2023-04-11T00:15:05.241Z,5.53
2023-04-11T00:17:37.843Z,5.83
2023-04-11T00:20:08.279Z,5.80
2023-04-11T00:22:36.778Z,6.30
2023-04-11T00:25:05.400Z,5.80
2023-04-11T00:27:33.652Z,6.83
2023-04-11T00:30:02.082Z,6.17
2023-04-11T00:32:30.386Z,5.97
2023-04-11T00:35:00.248Z,6.60
2023-04-11T00:37:28.530Z,4.57
2023-04-11T00:39:57.784Z,6.97
2023-04-11T00:42:26.012Z,7.03
2023-04-11T00:44:54.360Z,6.30
2023-04-11T00:47:22.771Z,5.13
2023-04-11T00:49:51.163Z,5.63
2023-04-11T00:52:21.322Z,5.13
2023-04-11T00:54:49.737Z,5.33
2023-04-11T00:57:18.716Z,5.23
2023-04-11T00:59:48.376Z,4.47
2023-04-11T01:02:18.405Z,4.90
2023-04-11T01:04:47.113Z,4.77
2023-04-11T01:07:16.302Z,4.53
2023-04-11T01:09:47.143Z,4.93
2023-04-11T01:12:17.089Z,4.70
2023-04-11T01:14:47.803Z,4.77
2023-04-11T01:17:17.163Z,5.07
2023-04-11T01:19:45.517Z,4.53
2023-04-11T01:22:15.040Z,4.23
2023-04-11T01:24:44.968Z,4.80
2023-04-11T01:27:13.496Z,5.33
2023-04-11T01:29:41.753Z,4.77
2023-04-11T01:32:10.099Z,4.30
2023-04-11T01:34:42.128Z,4.03
2023-04-11T01:37:10.579Z,4.20
2023-04-11T01:39:39.172Z,4.23
2023-04-11T01:42:10.451Z,4.57
2023-04-11T01:44:39.377Z,4.93
2023-04-11T01:47:07.620Z,4.80
2023-04-11T01:49:35.869Z,5.07
2023-04-11T01:52:04.175Z,3.47
2023-04-11T01:54:32.397Z,4.60
2023-04-11T01:57:01.363Z,5.47
2023-04-11T01:59:31.135Z,4.97
2023-04-11T02:01:59.669Z,4.60
2023-04-11T02:04:28.084Z,4.83
2023-04-11T02:06:56.317Z,4.60
2023-04-11T02:09:24.592Z,4.90
2023-04-11T02:11:53.817Z,5.30
2023-04-11T02:14:22.068Z,4.97
2023-04-11T02:16:55.540Z,5.37
2023-04-11T02:19:26.166Z,4.50
2023-04-11T02:21:54.639Z,4.50
2023-04-11T02:24:22.902Z,4.30
2023-04-11T02:26:51.100Z,5.30
2023-04-11T02:29:19.453Z,4.97
2023-04-11T02:31:50.176Z,4.23
2023-04-11T02:34:20.543Z,4.57
2023-04-11T02:36:49.043Z,4.63
2023-04-11T02:39:17.543Z,4.73
2023-04-11T02:41:45.915Z,4.67
2023-04-11T02:44:14.160Z,4.63
2023-04-11T02:46:44.970Z,5.07
2023-04-11T02:49:13.243Z,4.93
2023-04-11T02:51:43.035Z,4.43
2023-04-11T02:54:11.961Z,5.37
2023-04-11T02:56:40.183Z,5.80
2023-04-11T02:59:08.624Z,4.70
2023-04-11T03:01:38.353Z,4.73
2023-04-11T03:04:07.364Z,5.07
2023-04-11T03:06:46.214Z,4.30
2023-04-11T03:09:15.188Z,4.63
2023-04-11T03:11:46.827Z,5.33
2023-04-11T03:14:16.504Z,5.13
2023-04-11T03:16:44.906Z,4.40
2023-04-11T03:19:13.455Z,4.97
2023-04-11T03:21:41.800Z,5.67
2023-04-11T03:24:12.657Z,4.10
2023-04-11T03:26:42.342Z,4.80
2023-04-11T03:29:14.090Z,3.93
2023-04-11T03:31:55.953Z,4.33
2023-04-11T03:34:26.112Z,3.90
2023-04-11T03:36:55.941Z,3.93
2023-04-11T03:39:26.404Z,4.03
2023-04-11T03:41:55.140Z,3.73
2023-04-11T03:44:23.443Z,5.47
2023-04-11T03:46:52.571Z,3.83
2023-04-11T03:49:21.036Z,4.13
2023-04-11T03:51:56.048Z,4.10
2023-04-11T03:54:27.703Z,3.60
2023-04-11T03:56:57.268Z,3.43
2023-04-11T03:59:27.062Z,4.10
2023-04-11T04:02:01.087Z,3.93
2023-04-11T04:04:33.981Z,3.73
2023-04-11T04:07:15.127Z,4.67
2023-04-11T04:09:46.941Z,3.13
2023-04-11T04:12:15.309Z,3.50
2023-04-11T04:15:02.965Z,3.97
2023-04-11T04:17:32.209Z,3.80
2023-04-11T04:20:01.838Z,4.00
2023-04-11T04:22:31.228Z,3.70
2023-04-11T04:25:03.936Z,3.47
2023-04-11T04:27:34.266Z,3.40
2023-04-11T04:30:04.457Z,3.47
2023-04-11T04:32:54.965Z,3.03
2023-04-11T04:35:26.278Z,3.83
2023-04-11T04:37:55.271Z,3.20
2023-04-11T04:40:42.077Z,2.60
2023-04-11T04:43:18.475Z,2.83
2023-04-11T04:46:00.141Z,2.77
2023-04-11T04:48:35.292Z,2.17
2023-04-11T04:51:04.722Z,3.10
2023-04-11T04:53:38.830Z,3.03
2023-04-11T04:56:11.049Z,2.57
2023-04-11T04:58:47.329Z,3.23
2023-04-11T05:01:17.700Z,3.77
2023-04-11T05:03:50.798Z,3.03
2023-04-11T05:06:30.190Z,2.93
2023-04-11T05:09:00.135Z,2.93
2023-04-11T05:11:30.357Z,3.20
2023-04-11T05:13:58.697Z,2.53
2023-04-11T05:16:28.830Z,2.50
2023-04-11T05:18:58.797Z,2.90
2023-04-11T05:21:27.664Z,2.57
2023-04-11T05:23:56.597Z,3.33
2023-04-11T05:26:25.890Z,2.73
2023-04-11T05:28:55.535Z,2.77
2023-04-11T05:31:28.799Z,2.67
2023-04-11T05:33:58.808Z,3.33
2023-04-11T05:36:28.884Z,3.77
2023-04-11T05:38:57.149Z,2.43
2023-04-11T05:41:25.453Z,2.97
2023-04-11T05:43:55.402Z,2.63
2023-04-11T05:46:23.836Z,2.90
2023-04-11T05:48:52.115Z,2.70
2023-04-11T05:51:20.886Z,3.60
2023-04-11T05:53:49.101Z,3.00
2023-04-11T05:56:17.330Z,2.67
2023-04-11T05:58:45.644Z,2.43
2023-04-11T06:01:19.142Z,3.60
2023-04-11T06:03:47.747Z,2.67
2023-04-11T06:06:16.196Z,3.03
2023-04-11T06:08:44.469Z,2.80
2023-04-11T06:11:12.748Z,2.97
2023-04-11T06:13:40.977Z,3.53
2023-04-11T06:16:09.788Z,2.90
2023-04-11T06:18:39.502Z,2.70
2023-04-11T06:21:07.889Z,3.10
2023-04-11T06:23:36.061Z,2.83
2023-04-11T06:26:04.399Z,2.73
2023-04-11T06:28:32.665Z,2.77
2023-04-11T06:31:00.947Z,2.93
2023-04-11T06:33:29.171Z,3.70
2023-04-11T06:35:58.975Z,2.93
2023-04-11T06:38:27.255Z,3.30
2023-04-11T06:40:56.464Z,3.17
2023-04-11T06:43:24.787Z,3.20
2023-04-11T06:45:53.075Z,3.40
2023-04-11T06:48:21.521Z,4.07
2023-04-11T06:50:49.756Z,3.33
2023-04-11T06:53:19.399Z,3.50
2023-04-11T06:55:49.817Z,3.20
2023-04-11T06:58:18.303Z,2.90
2023-04-11T07:00:46.495Z,2.67
2023-04-11T07:03:15.063Z,3.03
2023-04-11T07:05:43.445Z,3.07
2023-04-11T07:08:11.847Z,2.80
2023-04-11T07:10:41.556Z,3.00
2023-04-11T07:13:09.914Z,3.40
2023-04-11T07:15:38.124Z,2.97
2023-04-11T07:18:06.537Z,2.77
2023-04-11T07:20:35.625Z,2.60
2023-04-11T07:23:04.586Z,2.90
2023-04-11T07:25:33.487Z,3.53
2023-04-11T07:28:07.407Z,2.73
2023-04-11T07:30:36.679Z,3.30
2023-04-11T07:33:05.540Z,3.47
2023-04-11T07:35:34.724Z,2.83
2023-04-11T07:38:03.520Z,3.23
2023-04-11T07:40:31.931Z,2.60
2023-04-11T07:43:01.834Z,3.70
2023-04-11T07:45:31.625Z,2.63
2023-04-11T07:48:01.341Z,4.23
2023-04-11T07:50:29.638Z,4.10
2023-04-11T07:52:57.862Z,4.50
2023-04-11T07:55:26.104Z,3.30
2023-04-11T07:57:54.389Z,5.03
2023-04-11T08:00:23.921Z,4.57
2023-04-11T08:02:53.722Z,6.30
2023-04-11T08:05:22.212Z,6.57
2023-04-11T08:07:50.712Z,6.30
2023-04-11T08:10:19.066Z,6.23
2023-04-11T08:12:47.356Z,5.90
2023-04-11T08:15:15.691Z,5.80
2023-04-11T08:17:44.149Z,6.17
2023-04-11T08:20:14.426Z,9.97
2023-04-11T08:22:44.800Z,12.63
2023-04-11T08:25:14.591Z,7.70
2023-04-11T08:27:43.101Z,8.33
2023-04-11T08:30:11.941Z,8.93
2023-04-11T08:32:41.195Z,9.23
2023-04-11T08:35:10.620Z,9.17
2023-04-11T08:37:40.416Z,9.60
2023-04-11T08:40:10.219Z,9.27
2023-04-11T08:42:38.537Z,8.60
2023-04-11T08:45:08.866Z,8.87
2023-04-11T08:47:37.575Z,9.07
2023-04-11T08:50:06.681Z,8.10
2023-04-11T08:52:35.703Z,6.87
2023-04-11T08:55:06.007Z,5.33
2023-04-11T08:57:34.958Z,4.97
2023-04-11T09:00:11.248Z,4.23
2023-04-11T09:02:56.736Z,4.27
2023-04-11T09:05:29.512Z,4.57
2023-04-11T09:07:58.991Z,4.70
2023-04-11T09:10:29.299Z,4.50
2023-04-11T09:12:58.262Z,3.73
2023-04-11T09:15:31.721Z,3.80
2023-04-11T09:18:01.065Z,5.00
2023-04-11T09:20:31.229Z,5.03
2023-04-11T09:23:00.014Z,5.53
2023-04-11T09:25:29.873Z,5.43
2023-04-11T09:28:13.000Z,4.87
2023-04-11T09:30:50.631Z,4.20
2023-04-11T09:33:22.556Z,3.40
2023-04-11T09:35:52.138Z,3.13
2023-04-11T09:38:29.718Z,2.70
2023-04-11T09:41:00.828Z,3.77
2023-04-11T09:43:29.416Z,2.20
2023-04-11T09:46:10.700Z,3.20
2023-04-11T09:48:46.670Z,2.97
2023-04-11T09:51:31.805Z,2.90
2023-04-11T09:54:04.124Z,2.53
2023-04-11T09:56:35.363Z,2.27
2023-04-11T09:59:05.320Z,1.97
2023-04-11T10:01:40.256Z,2.07
2023-04-11T10:04:10.924Z,2.10
2023-04-11T10:06:45.416Z,2.87
2023-04-11T10:09:14.983Z,2.43
2023-04-11T10:11:46.120Z,2.50
2023-04-11T10:14:45.811Z,2.80
2023-04-11T10:17:20.739Z,2.00
2023-04-11T10:19:51.662Z,2.63
2023-04-11T10:22:57.576Z,2.00
2023-04-11T10:25:27.284Z,2.37
2023-04-11T10:28:01.139Z,1.77
2023-04-11T10:31:00.518Z,2.27
2023-04-11T10:33:28.865Z,2.87
2023-04-11T10:35:58.927Z,2.83
2023-04-11T10:38:48.890Z,2.97
2023-04-11T10:41:31.929Z,2.40
2023-04-11T10:44:20.929Z,2.30
2023-04-11T10:46:52.095Z,2.80
2023-04-11T10:49:34.611Z,2.50
2023-04-11T10:52:20.494Z,2.63
2023-04-11T10:54:49.214Z,2.10
2023-04-11T10:57:17.612Z,2.28
2023-04-11T11:00:00.643Z,2.60
2023-04-11T11:02:41.512Z,2.40
2023-04-11T11:05:20.669Z,2.70
2023-04-11T11:07:50.755Z,2.27
2023-04-11T11:10:37.571Z,2.30
2023-04-11T11:13:05.985Z,2.10
2023-04-11T11:15:37.959Z,2.20
2023-04-11T11:18:08.943Z,2.27
2023-04-11T11:20:37.994Z,2.60
2023-04-11T11:23:07.733Z,2.20
2023-04-11T11:25:36.205Z,3.27
2023-04-11T11:28:06.351Z,2.57
2023-04-11T11:30:37.112Z,2.07
2023-04-11T11:33:18.988Z,2.10
2023-04-11T11:35:53.210Z,2.10
2023-04-11T11:38:23.196Z,2.10
2023-04-11T11:40:52.320Z,2.40
2023-04-11T11:43:21.134Z,2.23
2023-04-11T11:46:08.817Z,1.70
2023-04-11T11:48:38.053Z,1.60
2023-04-11T11:51:07.197Z,1.50
2023-04-11T11:53:35.455Z,2.07
2023-04-11T11:56:13.988Z,2.20
2023-04-11T11:58:45.840Z,1.80
2023-04-11T12:01:17.567Z,2.13
2023-04-11T12:03:51.501Z,1.73
2023-04-11T12:06:20.645Z,2.00
2023-04-11T12:08:53.949Z,2.13
2023-04-11T12:11:22.620Z,1.90
2023-04-11T12:13:54.504Z,2.10
2023-04-11T12:16:24.771Z,2.83
2023-04-11T12:18:53.094Z,1.80
2023-04-11T12:21:21.308Z,1.60
2023-04-11T12:23:49.552Z,2.08
2023-04-11T12:26:20.068Z,1.70
2023-04-11T12:28:49.611Z,1.83
2023-04-11T12:31:18.168Z,1.98
2023-04-11T12:33:47.785Z,2.05
2023-04-11T12:36:22.962Z,1.70
2023-04-11T12:38:51.260Z,2.08
2023-04-11T12:41:32.071Z,2.35
2023-04-11T12:44:02.491Z,2.33
2023-04-11T12:46:30.974Z,2.35
2023-04-11T12:49:00.787Z,2.40
2023-04-11T12:51:29.029Z,1.90
2023-04-11T12:53:57.279Z,2.20
2023-04-11T12:56:25.527Z,2.28
2023-04-11T12:58:53.715Z,1.80
2023-04-11T13:01:23.680Z,2.13
2023-04-11T13:03:52.165Z,1.52
2023-04-11T13:06:23.356Z,2.00
2023-04-11T13:08:51.672Z,1.48
2023-04-11T13:11:19.997Z,1.63
2023-04-11T13:13:49.525Z,1.63
2023-04-11T13:16:17.869Z,3.17
2023-04-11T13:18:46.125Z,1.60
2023-04-11T13:21:14.351Z,1.70
2023-04-11T13:23:43.952Z,1.50
2023-04-11T13:26:12.268Z,1.48
2023-04-11T13:28:40.596Z,1.90
2023-04-11T13:31:10.420Z,1.65
2023-04-11T13:33:40.535Z,1.95
2023-04-11T13:36:10.093Z,1.92
2023-04-11T13:38:38.631Z,1.98
2023-04-11T13:41:08.646Z,1.67
2023-04-11T13:43:36.859Z,2.00
2023-04-11T13:46:05.680Z,1.50
2023-04-11T13:48:33.898Z,2.20
2023-04-11T13:51:02.105Z,2.20
2023-04-11T13:53:30.429Z,1.70
2023-04-11T13:55:58.645Z,1.80
2023-04-11T13:58:28.192Z,2.20
2023-04-11T14:00:56.568Z,1.70
2023-04-11T14:03:25.552Z,1.65
2023-04-11T14:05:53.869Z,1.98
2023-04-11T14:08:22.270Z,2.03
2023-04-11T14:10:50.512Z,1.30
2023-04-11T14:13:19.856Z,1.33
2023-04-11T14:16:04.927Z,1.98
2023-04-11T14:18:36.892Z,1.50
2023-04-11T14:21:06.177Z,1.92
2023-04-11T14:23:34.697Z,1.40
2023-04-11T14:26:02.924Z,1.45
2023-04-11T14:28:31.192Z,1.48
2023-04-11T14:31:00.911Z,2.33
2023-04-11T14:33:29.293Z,1.30
2023-04-11T14:35:57.655Z,1.30
2023-04-11T14:38:25.946Z,1.10
2023-04-11T14:40:54.209Z,1.17
2023-04-11T14:43:22.794Z,1.50
2023-04-11T14:45:51.068Z,1.60
2023-04-11T14:48:20.814Z,1.58
2023-04-11T14:50:49.035Z,1.83
2023-04-11T14:53:17.293Z,1.70
2023-04-11T14:55:45.598Z,1.80
2023-04-11T14:58:13.844Z,1.58
2023-04-11T15:00:42.114Z,1.58
2023-04-11T15:03:10.572Z,1.92
2023-04-11T15:05:40.385Z,1.98
2023-04-11T15:08:09.948Z,1.33
2023-04-11T15:10:38.305Z,1.92
2023-04-11T15:13:07.112Z,1.98
2023-04-11T15:15:35.651Z,1.80
2023-04-11T15:18:25.957Z,2.43
2023-04-11T15:20:56.695Z,1.52
2023-04-11T15:23:25.375Z,1.90
2023-04-11T15:25:54.815Z,1.77
2023-04-11T15:28:23.406Z,2.00
2023-04-11T15:30:52.985Z,1.97
2023-04-11T15:33:22.123Z,1.73
2023-04-11T15:35:50.727Z,1.57
2023-04-11T15:38:20.910Z,1.98
2023-04-11T15:40:50.870Z,1.97
2023-04-11T15:43:19.415Z,2.40
2023-04-11T15:45:47.861Z,2.13
2023-04-11T15:48:16.352Z,2.07
2023-04-11T15:50:45.778Z,2.03
2023-04-11T15:53:14.012Z,1.60
2023-04-11T15:55:44.647Z,2.30
2023-04-11T15:58:13.012Z,1.50
2023-04-11T16:00:43.917Z,1.53
2023-04-11T16:03:12.521Z,1.80
2023-04-11T16:05:43.378Z,1.60
2023-04-11T16:08:11.876Z,1.88
2023-04-11T16:10:40.353Z,1.45
2023-04-11T16:13:10.700Z,1.70
2023-04-11T16:15:38.971Z,1.77
2023-04-11T16:18:07.323Z,1.80
2023-04-11T16:20:35.821Z,1.40
2023-04-11T16:23:04.100Z,1.60
2023-04-11T16:25:32.654Z,1.47
2023-04-11T16:28:00.877Z,1.40
2023-04-11T16:30:30.627Z,1.50
2023-04-11T16:32:59.029Z,1.20
2023-04-11T16:35:27.506Z,1.90
2023-04-11T16:37:55.806Z,1.50
2023-04-11T16:40:24.076Z,1.93
2023-04-11T16:42:52.420Z,1.73
2023-04-11T16:45:21.265Z,2.03
2023-04-11T16:47:50.942Z,1.70
2023-04-11T16:50:19.323Z,2.27
2023-04-11T16:52:47.633Z,1.83
2023-04-11T16:55:16.830Z,2.00
2023-04-11T16:57:45.567Z,2.20
2023-04-11T17:00:17.010Z,2.30
2023-04-11T17:02:45.629Z,2.20
2023-04-11T17:05:15.579Z,2.40
2023-04-11T17:07:43.790Z,2.73
2023-04-11T17:10:12.636Z,2.87
2023-04-11T17:12:40.959Z,2.40
2023-04-11T17:15:09.764Z,2.30
2023-04-11T17:17:38.059Z,2.10
2023-04-11T17:20:09.778Z,2.30
2023-04-11T17:22:43.104Z,2.60
2023-04-11T17:25:11.521Z,2.17
2023-04-11T17:27:39.925Z,2.50
2023-04-11T17:30:09.534Z,2.53
2023-04-11T17:32:38.370Z,2.20
2023-04-11T17:35:07.454Z,2.70
2023-04-11T17:37:36.133Z,2.63
2023-04-11T17:40:12.108Z,2.20
2023-04-11T17:42:40.429Z,2.30
2023-04-11T17:45:17.561Z,2.23
2023-04-11T17:47:47.646Z,2.80
2023-04-11T17:50:16.447Z,2.47
2023-04-11T17:52:46.157Z,2.70
2023-04-11T17:55:17.569Z,2.23
2023-04-11T17:57:47.331Z,2.70
2023-04-11T18:00:21.336Z,2.60
2023-04-11T18:02:51.155Z,2.70
2023-04-11T18:05:24.316Z,3.07
2023-04-11T18:07:56.486Z,2.60
2023-04-11T18:10:27.583Z,2.87
2023-04-11T18:12:58.187Z,3.47
2023-04-11T18:15:27.137Z,2.50
2023-04-11T18:17:55.562Z,2.73
2023-04-11T18:20:24.044Z,2.47
2023-04-11T18:22:56.270Z,2.50
2023-04-11T18:25:26.162Z,3.27
2023-04-11T18:27:54.522Z,3.60
2023-04-11T18:30:22.794Z,4.13
2023-04-11T18:32:53.682Z,2.93
2023-04-11T18:35:22.690Z,2.67
2023-04-11T18:37:51.952Z,2.83
2023-04-11T18:40:20.289Z,3.53
2023-04-11T18:42:53.016Z,3.17
2023-04-11T18:45:22.386Z,2.67
2023-04-11T18:47:51.372Z,3.40
2023-04-11T18:50:19.998Z,3.13
2023-04-11T18:52:53.642Z,2.77
2023-04-11T18:55:24.508Z,5.97
2023-04-11T18:57:58.328Z,3.73
2023-04-11T19:00:29.596Z,3.50
2023-04-11T19:02:58.009Z,3.53
2023-04-11T19:05:26.892Z,2.87
2023-04-11T19:07:56.025Z,3.53
2023-04-11T19:10:24.308Z,3.63
2023-04-11T19:12:53.943Z,3.83
2023-04-11T19:15:22.401Z,3.30
2023-04-11T19:17:51.577Z,3.53
2023-04-11T19:20:20.403Z,3.37
2023-04-11T19:22:48.622Z,3.20
2023-04-11T19:25:17.043Z,3.10
2023-04-11T19:27:46.221Z,2.83
2023-04-11T19:30:16.004Z,3.20
2023-04-11T19:32:47.344Z,3.37
2023-04-11T19:35:16.138Z,2.90
2023-04-11T19:37:44.457Z,2.70
2023-04-11T19:40:13.813Z,2.87
2023-04-11T19:42:43.274Z,3.13
2023-04-11T19:45:12.420Z,3.13
2023-04-11T19:47:42.295Z,4.00
2023-04-11T19:50:12.946Z,3.83
2023-04-11T19:52:42.474Z,4.43
2023-04-11T19:55:11.596Z,2.87
2023-04-11T19:57:40.301Z,2.90
2023-04-11T20:00:14.118Z,2.40
2023-04-11T20:02:46.701Z,2.60
2023-04-11T20:05:16.339Z,2.90
2023-04-11T20:07:45.163Z,2.63
2023-04-11T20:10:14.623Z,3.70
2023-04-11T20:12:42.928Z,4.97
2023-04-11T20:15:12.113Z,5.80
2023-04-11T20:17:40.449Z,3.63
2023-04-11T20:20:12.283Z,3.67
2023-04-11T20:22:40.822Z,4.40
2023-04-11T20:25:11.618Z,4.03
2023-04-11T20:27:40.326Z,5.20
2023-04-11T20:30:10.631Z,3.90
2023-04-11T20:32:39.366Z,4.27
2023-04-11T20:35:09.996Z,3.17
2023-04-11T20:37:41.090Z,5.40
2023-04-11T20:40:11.192Z,3.97
2023-04-11T20:42:42.334Z,4.03
2023-04-11T20:45:12.961Z,4.47
2023-04-11T20:47:44.860Z,4.27
2023-04-11T20:50:15.903Z,2.70
2023-04-11T20:52:47.831Z,3.10
2023-04-11T20:55:16.183Z,3.03
2023-04-11T20:57:44.764Z,3.17
2023-04-11T21:00:14.591Z,3.93
2023-04-11T21:02:45.174Z,3.50
2023-04-11T21:05:14.175Z,3.50
2023-04-11T21:07:43.276Z,2.90
2023-04-11T21:10:13.394Z,3.07
2023-04-11T21:12:42.731Z,3.17
2023-04-11T21:15:11.905Z,3.63
2023-04-11T21:17:40.540Z,2.60
2023-04-11T21:20:17.769Z,2.90
2023-04-11T21:22:46.956Z,2.83
2023-04-11T21:25:16.968Z,3.60
2023-04-11T21:27:45.331Z,2.97
2023-04-11T21:30:14.725Z,3.50
2023-04-11T21:32:43.061Z,2.87
2023-04-11T21:35:12.573Z,3.30
2023-04-11T21:37:40.880Z,3.80
2023-04-11T21:40:10.130Z,3.57
2023-04-11T21:42:39.753Z,4.27
2023-04-11T21:45:09.611Z,3.80
2023-04-11T21:47:37.968Z,4.33
2023-04-11T21:50:07.120Z,4.23
2023-04-11T21:52:35.383Z,4.77
2023-04-11T21:55:05.894Z,4.40
2023-04-11T21:57:36.424Z,4.13
2023-04-11T22:00:08.329Z,4.30
2023-04-11T22:02:42.534Z,4.20
2023-04-11T22:05:12.692Z,3.20
2023-04-11T22:07:50.208Z,3.63
2023-04-11T22:10:22.619Z,3.30
2023-04-11T22:12:53.952Z,3.90
2023-04-11T22:15:24.202Z,3.77
2023-04-11T22:17:54.570Z,3.73
2023-04-11T22:20:23.105Z,3.50
2023-04-11T22:22:51.365Z,3.53
2023-04-11T22:25:22.286Z,4.50
2023-04-11T22:27:54.828Z,3.60
2023-04-11T22:30:24.926Z,4.10
2023-04-11T22:32:54.269Z,4.53
2023-04-11T22:35:23.555Z,5.20
2023-04-11T22:37:53.693Z,5.30
2023-04-11T22:40:23.138Z,5.43
2023-04-11T22:42:52.338Z,4.80
2023-04-11T22:45:21.304Z,5.53
2023-04-11T22:47:54.283Z,4.97
2023-04-11T22:50:23.017Z,4.43
2023-04-11T22:52:51.208Z,5.07
2023-04-11T22:55:21.058Z,4.70
2023-04-11T22:57:49.438Z,4.47
2023-04-11T23:00:19.252Z,5.27
2023-04-11T23:02:47.743Z,4.80
2023-04-11T23:05:17.793Z,3.67
2023-04-11T23:07:46.458Z,3.80
2023-04-11T23:10:15.586Z,3.80
2023-04-11T23:12:44.530Z,3.60
2023-04-11T23:15:13.302Z,3.30
2023-04-11T23:17:41.709Z,3.50
2023-04-11T23:20:13.453Z,2.80
2023-04-11T23:22:44.120Z,3.10
2023-04-11T23:25:14.058Z,2.33
2023-04-11T23:27:42.984Z,2.70
2023-04-11T23:30:12.691Z,2.70
2023-04-11T23:32:41.524Z,2.70
2023-04-11T23:35:10.937Z,2.50
2023-04-11T23:37:40.870Z,2.30
2023-04-11T23:40:13.973Z,2.77
2023-04-11T23:42:42.760Z,2.37
2023-04-11T23:45:12.739Z,2.30
2023-04-11T23:47:41.216Z,2.13
2023-04-11T23:50:10.222Z,2.37
2023-04-11T23:52:38.970Z,2.33
2023-04-11T23:55:08.473Z,2.13
2023-04-11T23:57:38.181Z,2.20
